createdAt,value
2023-01-17T00:02:48.983Z,22.22
2023-01-17T00:08:09.228Z,21.98
2023-01-17T00:13:12.091Z,21.71
2023-01-17T00:18:17.592Z,21.55
2023-01-17T00:23:42.838Z,21.31
2023-01-17T00:28:45.222Z,21.24
2023-01-17T00:33:48.292Z,21.14
2023-01-17T00:38:49.964Z,21.03
2023-01-17T00:44:10.180Z,20.97
2023-01-17T00:49:31.800Z,20.90
2023-01-17T00:54:52.325Z,20.79
2023-01-17T01:00:12.773Z,20.76
2023-01-17T01:05:34.995Z,20.67
2023-01-17T01:10:55.516Z,20.58
2023-01-17T01:16:18.608Z,20.49
2023-01-17T01:21:40.312Z,20.48
2023-01-17T01:27:00.380Z,20.42
2023-01-17T01:32:20.530Z,20.34
2023-01-17T01:37:24.690Z,20.34
2023-01-17T01:42:27.702Z,20.27
2023-01-17T01:47:33.437Z,20.26
2023-01-17T01:52:43.709Z,20.20
2023-01-17T01:57:49.989Z,20.19
2023-01-17T02:02:55.995Z,20.20
2023-01-17T02:08:08.027Z,20.13
2023-01-17T02:13:12.238Z,20.15
2023-01-17T02:18:22.173Z,20.10
2023-01-17T02:24:09.656Z,20.01
2023-01-17T02:29:37.953Z,20.03
2023-01-17T02:34:49.137Z,20.01
2023-01-17T02:39:58.867Z,20.03
2023-01-17T02:45:03.382Z,20.05
2023-01-17T02:50:12.929Z,19.97
2023-01-17T02:55:27.895Z,19.96
2023-01-17T03:00:44.772Z,19.92
2023-01-17T03:05:53.374Z,19.91
2023-01-17T03:10:56.320Z,19.90
2023-01-17T03:15:59.111Z,19.89
2023-01-17T03:21:03.308Z,19.88
2023-01-17T03:26:06.370Z,19.84
2023-01-17T03:31:10.534Z,19.81
2023-01-17T03:36:14.841Z,19.79
2023-01-17T03:41:17.790Z,19.77
2023-01-17T03:46:23.787Z,19.77
2023-01-17T03:51:28.092Z,19.74
2023-01-17T03:56:30.888Z,19.72
2023-01-17T04:01:33.771Z,19.71
2023-01-17T04:06:38.016Z,19.68
2023-01-17T04:11:40.810Z,19.67
2023-01-17T04:16:43.801Z,19.65
2023-01-17T04:21:47.970Z,19.66
2023-01-17T04:26:50.767Z,19.67
2023-01-17T04:31:53.561Z,19.66
2023-01-17T04:36:57.696Z,19.62
2023-01-17T04:42:00.604Z,19.60
2023-01-17T04:47:03.576Z,19.58
2023-01-17T04:52:07.824Z,19.54
2023-01-17T04:57:10.660Z,19.54
2023-01-17T05:02:14.364Z,19.51
2023-01-17T05:07:18.621Z,19.50
2023-01-17T05:12:21.559Z,19.47
2023-01-17T05:17:24.338Z,19.46
2023-01-17T05:22:28.564Z,19.47
2023-01-17T05:27:31.295Z,19.44
2023-01-17T05:32:34.098Z,19.44
2023-01-17T05:37:38.254Z,19.44
2023-01-17T05:42:46.139Z,19.42
2023-01-17T05:47:50.877Z,19.42
2023-01-17T05:52:56.895Z,19.41
2023-01-17T05:58:00.151Z,19.43
2023-01-17T06:03:02.983Z,19.40
2023-01-17T06:08:07.298Z,19.40
2023-01-17T06:13:12.458Z,19.39
2023-01-17T06:18:17.280Z,19.39
2023-01-17T06:23:22.039Z,19.35
2023-01-17T06:28:25.335Z,19.36
2023-01-17T06:33:28.129Z,19.36
2023-01-17T06:38:32.356Z,19.34
2023-01-17T06:43:35.320Z,19.34
2023-01-17T06:48:38.095Z,19.33
2023-01-17T06:53:42.797Z,19.34
2023-01-17T06:58:45.608Z,19.34
2023-01-17T07:03:48.638Z,19.32
2023-01-17T07:08:53.747Z,19.31
2023-01-17T07:13:56.471Z,19.27
2023-01-17T07:18:59.392Z,19.27
2023-01-17T07:24:03.540Z,19.25
2023-01-17T07:29:06.830Z,19.25
2023-01-17T07:34:09.979Z,19.24
2023-01-17T07:39:14.303Z,19.22
2023-01-17T07:44:17.375Z,19.24
2023-01-17T07:49:20.144Z,19.22
2023-01-17T07:54:24.251Z,19.23
2023-01-17T07:59:27.033Z,19.20
2023-01-17T08:04:34.590Z,19.24
2023-01-17T08:09:38.754Z,19.35
2023-01-17T08:14:41.552Z,19.32
2023-01-17T08:19:44.751Z,19.38
2023-01-17T08:24:48.945Z,19.38
2023-01-17T08:29:52.052Z,18.55
2023-01-17T08:34:56.480Z,17.94
2023-01-17T08:40:00.680Z,19.05
2023-01-17T08:45:03.545Z,19.48
2023-01-17T08:50:07.340Z,19.74
2023-01-17T08:55:11.735Z,19.91
2023-01-17T09:00:15.273Z,20.03
2023-01-17T09:05:18.123Z,20.08
2023-01-17T09:10:23.577Z,20.14
2023-01-17T09:15:26.544Z,20.21
2023-01-17T09:20:30.836Z,20.25
2023-01-17T09:25:35.137Z,20.18
2023-01-17T09:30:37.965Z,20.17
2023-01-17T09:35:40.990Z,20.20
2023-01-17T09:40:48.455Z,20.14
2023-01-17T09:45:51.429Z,20.13
2023-01-17T09:51:01.804Z,20.05
2023-01-17T09:56:12.372Z,20.07
2023-01-17T10:01:22.855Z,20.07
2023-01-17T10:06:53.903Z,20.01
2023-01-17T10:12:14.638Z,20.00
2023-01-17T10:17:31.421Z,20.02
2023-01-17T10:22:51.217Z,19.98
2023-01-17T10:27:59.261Z,20.05
2023-01-17T10:33:07.599Z,20.09
2023-01-17T10:38:14.884Z,20.04
2023-01-17T10:43:25.607Z,20.02
2023-01-17T10:48:38.756Z,20.05
2023-01-17T10:53:54.558Z,20.08
2023-01-17T10:59:17.287Z,20.06
2023-01-17T11:04:22.659Z,20.09
2023-01-17T11:09:38.932Z,20.05
2023-01-17T11:14:53.662Z,20.06
2023-01-17T11:20:09.249Z,20.11
2023-01-17T11:25:22.272Z,20.15
2023-01-17T11:30:29.376Z,20.17
2023-01-17T11:35:33.633Z,20.19
2023-01-17T11:40:40.518Z,20.20
2023-01-17T11:45:44.764Z,20.19
2023-01-17T11:50:56.204Z,20.21
2023-01-17T11:56:06.393Z,20.21
2023-01-17T12:01:34.208Z,20.43
2023-01-17T12:06:57.228Z,20.33
2023-01-17T12:12:25.758Z,20.34
2023-01-17T12:17:49.811Z,20.40
2023-01-17T12:23:14.864Z,20.39
2023-01-17T12:28:44.590Z,20.55
2023-01-17T12:33:55.766Z,20.51
2023-01-17T12:39:03.023Z,20.48
2023-01-17T12:44:06.335Z,20.45
2023-01-17T12:49:23.646Z,20.41
2023-01-17T12:54:32.349Z,20.37
2023-01-17T12:59:41.911Z,20.33
2023-01-17T13:04:58.839Z,20.31
2023-01-17T13:10:20.331Z,20.26
2023-01-17T13:15:27.705Z,20.25
2023-01-17T13:20:50.525Z,20.29
2023-01-17T13:25:53.416Z,20.38
2023-01-17T13:31:19.180Z,20.38
2023-01-17T13:36:39.176Z,20.32
2023-01-17T13:41:51.365Z,20.32
2023-01-17T13:47:06.659Z,20.27
2023-01-17T13:52:28.492Z,20.18
2023-01-17T13:57:40.073Z,20.16
2023-01-17T14:02:43.919Z,20.15
2023-01-17T14:07:55.872Z,20.18
2023-01-17T14:12:59.604Z,19.18
2023-01-17T14:18:04.070Z,18.76
2023-01-17T14:23:33.861Z,19.51
2023-01-17T14:28:36.671Z,19.64
2023-01-17T14:33:41.564Z,19.74
2023-01-17T14:38:46.099Z,19.79
2023-01-17T14:43:50.412Z,19.85
2023-01-17T14:49:00.329Z,19.90
2023-01-17T14:54:19.180Z,19.94
2023-01-17T14:59:22.879Z,19.98
2023-01-17T15:04:28.297Z,19.99
2023-01-17T15:09:36.514Z,20.06
2023-01-17T15:14:44.000Z,20.10
2023-01-17T15:19:54.064Z,20.06
2023-01-17T15:24:59.272Z,20.00
2023-01-17T15:30:03.984Z,20.01
2023-01-17T15:35:07.871Z,20.18
2023-01-17T15:40:19.101Z,20.21
2023-01-17T15:45:26.076Z,20.40
2023-01-17T15:50:32.055Z,20.70
2023-01-17T15:55:38.805Z,20.73
2023-01-17T16:00:44.245Z,20.64
2023-01-17T16:05:47.588Z,20.60
2023-01-17T16:10:54.923Z,20.54
2023-01-17T16:16:18.873Z,20.47
2023-01-17T16:21:24.633Z,20.50
2023-01-17T16:26:29.009Z,20.48
2023-01-17T16:31:32.454Z,20.53
2023-01-17T16:36:36.815Z,20.55
2023-01-17T16:41:40.984Z,20.54
2023-01-17T16:46:43.746Z,20.56
2023-01-17T16:51:47.321Z,20.59
2023-01-17T16:56:51.448Z,20.66
2023-01-17T17:01:54.841Z,20.65
2023-01-17T17:06:57.631Z,20.72
2023-01-17T17:12:01.932Z,20.71
2023-01-17T17:17:04.676Z,20.63
2023-01-17T17:22:07.484Z,20.69
2023-01-17T17:27:11.770Z,20.59
2023-01-17T17:32:14.674Z,20.58
2023-01-17T17:37:17.839Z,20.72
2023-01-17T17:42:22.071Z,20.73
2023-01-17T17:47:25.004Z,20.60
2023-01-17T17:52:28.038Z,20.83
2023-01-17T17:57:32.320Z,21.02
2023-01-17T18:02:35.255Z,21.08
2023-01-17T18:07:38.027Z,21.11
2023-01-17T18:12:42.165Z,21.12
2023-01-17T18:17:45.285Z,21.20
2023-01-17T18:22:48.140Z,21.21
2023-01-17T18:27:52.656Z,21.27
2023-01-17T18:32:55.621Z,21.31
2023-01-17T18:37:59.891Z,21.38
2023-01-17T18:43:04.071Z,21.41
2023-01-17T18:48:07.146Z,21.43
2023-01-17T18:53:10.046Z,21.46
2023-01-17T18:58:14.180Z,21.52
2023-01-17T19:03:18.792Z,21.53
2023-01-17T19:08:21.802Z,21.56
2023-01-17T19:13:26.026Z,21.62
2023-01-17T19:18:29.586Z,21.65
2023-01-17T19:23:32.418Z,21.67
2023-01-17T19:28:38.610Z,21.71
2023-01-17T19:33:43.745Z,21.73
2023-01-17T19:38:58.680Z,21.75
2023-01-17T19:44:08.839Z,21.76
2023-01-17T19:49:11.722Z,21.79
2023-01-17T19:54:15.159Z,21.82
2023-01-17T19:59:20.100Z,21.86
2023-01-17T20:04:22.940Z,21.87
2023-01-17T20:09:25.699Z,21.89
2023-01-17T20:14:29.807Z,21.92
2023-01-17T20:19:33.534Z,21.91
2023-01-17T20:24:36.461Z,21.96
2023-01-17T20:29:40.742Z,21.97
2023-01-17T20:34:45.400Z,21.98
2023-01-17T20:39:48.484Z,22.00
2023-01-17T20:44:52.698Z,22.01
2023-01-17T20:49:55.468Z,22.01
2023-01-17T20:54:58.216Z,22.02
2023-01-17T21:00:02.369Z,22.03
2023-01-17T21:05:05.929Z,22.05
2023-01-17T21:10:09.703Z,22.05
2023-01-17T21:15:17.322Z,22.05
2023-01-17T21:20:20.153Z,22.09
2023-01-17T21:25:22.991Z,22.08
2023-01-17T21:30:27.167Z,22.09
2023-01-17T21:35:31.633Z,22.11
2023-01-17T21:40:34.955Z,22.13
2023-01-17T21:45:39.848Z,22.12
2023-01-17T21:50:42.680Z,22.14
2023-01-17T21:56:03.182Z,22.13
2023-01-17T22:01:18.135Z,22.14
2023-01-17T22:06:22.302Z,22.14
2023-01-17T22:11:27.339Z,22.12
2023-01-17T22:16:31.675Z,22.09
2023-01-17T22:21:34.427Z,22.04
2023-01-17T22:26:37.269Z,22.02
2023-01-17T22:31:41.365Z,21.96
2023-01-17T22:36:45.059Z,21.97
2023-01-17T22:41:47.925Z,21.91
2023-01-17T22:46:52.124Z,21.83
2023-01-17T22:51:54.923Z,21.81
2023-01-17T22:56:58.708Z,21.79
2023-01-17T23:02:02.900Z,21.78
2023-01-17T23:07:05.702Z,21.74
2023-01-17T23:12:08.820Z,21.74
2023-01-17T23:17:41.805Z,21.74
2023-01-17T23:22:44.844Z,21.73
2023-01-17T23:28:17.455Z,21.74
2023-01-17T23:33:21.597Z,21.68
2023-01-17T23:38:29.012Z,21.69
2023-01-17T23:43:31.853Z,21.69
2023-01-17T23:48:35.941Z,21.69
2023-01-17T23:53:40.569Z,21.66
2023-01-17T23:58:43.462Z,21.64
